This is the latest recevied weather packets stored in our database for station/object WB6ANP. If no packets are shown the sender has not sent any weather packets the latest 1 day(s).
| Time | Temp. | Humidity | Pressure | Rain* | Wind** | Luminosity | Snow |
|---|---|---|---|---|---|---|---|
| 1778047525 | 15° C | 80% | 1009.8 hPa | 0 mm | 1.79 m/s, 74° | 0 W/m² | - |
| 1778047222 | 15° C | 80% | 1009.8 hPa | 0 mm | 1.79 m/s, 97° | 0 W/m² | - |
| 1778046919 | 15° C | 79% | 1009.9 hPa | 0 mm | 3.13 m/s, 71° | 0 W/m² | - |
| 1778046616 | 15° C | 79% | 1009.9 hPa | 0 mm | 1.79 m/s, 114° | 0 W/m² | - |
| 1778046313 | 15° C | 79% | 1009.7 hPa | 0 mm | 2.24 m/s, 29° | 0 W/m² | - |
| 1778046008 | 15° C | 79% | 1009.7 hPa | 0 mm | 2.24 m/s, 58° | 0 W/m² | - |
| 1778045707 | 15° C | 79% | 1009.9 hPa | 0 mm | 1.79 m/s, 81° | 0 W/m² | - |
| 1778045405 | 15° C | 79% | 1009.8 hPa | 0 mm | 3.13 m/s, 38° | 0 W/m² | - |
| 1778045104 | 15° C | 78% | 1009.9 hPa | 0 mm | 2.68 m/s, 83° | 0 W/m² | - |
| 1778044800 | 15° C | 78% | 1010 hPa | 0 mm | 3.13 m/s, 37° | 0 W/m² | - |
| 1778044497 | 15° C | 78% | 1009.8 hPa | 0 mm | 2.24 m/s, 44° | 0 W/m² | - |
| 1778044194 | 15° C | 78% | 1009.9 hPa | 0 mm | 1.34 m/s, 56° | 0 W/m² | - |
| 1778043892 | 15° C | 78% | 1009.8 hPa | 0 mm | 0.89 m/s, 59° | 0 W/m² | - |
| 1778043589 | 15.56° C | 77% | 1010.1 hPa | 0 mm | 2.68 m/s, 59° | 0 W/m² | - |
| 1778043285 | 15.56° C | 77% | 1010.2 hPa | 0 mm | 2.68 m/s, 72° | 0 W/m² | - |
| 1778042982 | 15.56° C | 77% | 1010 hPa | 0 mm | 2.68 m/s, 64° | 0 W/m² | - |
| 1778042681 | 15.56° C | 76% | 1009.9 hPa | 0 mm | 0.45 m/s, 52° | 0 W/m² | - |
| 1778042377 | 15.56° C | 76% | 1009.8 hPa | 0 mm | 3.58 m/s, 23° | 0 W/m² | - |
| 1778042074 | 15.56° C | 77% | 1009.8 hPa | 0 mm | 1.79 m/s, 54° | 0 W/m² | - |
| 1778041772 | 15.56° C | 77% | 1009.8 hPa | 0 mm | 2.24 m/s, 32° | 0 W/m² | - |
| 1778041471 | 15.56° C | 76% | 1009.9 hPa | 0 mm | 0 m/s | 0 W/m² | - |
| 1778041169 | 15.56° C | 76% | 1009.9 hPa | 0 mm | 2.24 m/s, 61° | 0 W/m² | - |
| 1778040866 | 15.56° C | 76% | 1009.9 hPa | 0 mm | 1.34 m/s, 67° | 0 W/m² | - |
| 1778040563 | 16.11° C | 76% | 1009.6 hPa | 0 mm | 3.58 m/s, 36° | 0 W/m² | - |
| 1778040261 | 16.11° C | 76% | 1009.8 hPa | 0 mm | 1.34 m/s, 55° | 0 W/m² | - |
* Rain latest hour (hover to see other rain measurements)
** Current wind speed in m/s (hover to see current wind gust speed)